sensor_id;sensor_type;location;lat;lon;timestamp;P1;durP1;ratioP1;P2;durP2;ratioP2
20772;SDS011;10546;50.674;4.616;2023-05-10T06:06:30;8.10;;;3.70;;
20772;SDS011;10546;50.674;4.616;2023-05-10T06:08:59;6.40;;;3.77;;
20772;SDS011;10546;50.674;4.616;2023-05-10T06:11:25;8.20;;;4.17;;
20772;SDS011;10546;50.674;4.616;2023-05-10T06:13:50;7.73;;;3.40;;
20772;SDS011;10546;50.674;4.616;2023-05-10T06:16:16;8.67;;;3.53;;
20772;SDS011;10546;50.674;4.616;2023-05-10T06:18:42;4.87;;;3.43;;
20772;SDS011;10546;50.674;4.616;2023-05-10T06:21:08;6.10;;;3.70;;
20772;SDS011;10546;50.674;4.616;2023-05-10T06:23:34;8.03;;;3.33;;
20772;SDS011;10546;50.674;4.616;2023-05-10T06:26:00;5.77;;;3.27;;
20772;SDS011;10546;50.674;4.616;2023-05-10T06:28:26;10.53;;;3.83;;
20772;SDS011;10546;50.674;4.616;2023-05-10T06:30:51;8.00;;;3.93;;
20772;SDS011;10546;50.674;4.616;2023-05-10T06:33:17;12.57;;;4.30;;
20772;SDS011;10546;50.674;4.616;2023-05-10T06:35:43;9.20;;;3.83;;
20772;SDS011;10546;50.674;4.616;2023-05-10T06:38:08;10.50;;;3.88;;
20772;SDS011;10546;50.674;4.616;2023-05-10T06:40:34;9.50;;;4.10;;
20772;SDS011;10546;50.674;4.616;2023-05-10T06:43:01;11.13;;;4.20;;
20772;SDS011;10546;50.674;4.616;2023-05-10T06:45:26;9.43;;;4.45;;
20772;SDS011;10546;50.674;4.616;2023-05-10T06:47:52;6.73;;;3.80;;
20772;SDS011;10546;50.674;4.616;2023-05-10T06:50:18;7.07;;;3.87;;
20772;SDS011;10546;50.674;4.616;2023-05-10T06:52:43;10.13;;;4.97;;
20772;SDS011;10546;50.674;4.616;2023-05-10T06:55:09;9.13;;;3.57;;
20772;SDS011;10546;50.674;4.616;2023-05-10T06:57:35;8.17;;;4.23;;
20772;SDS011;10546;50.674;4.616;2023-05-10T07:00:01;8.47;;;5.00;;
20772;SDS011;10546;50.674;4.616;2023-05-10T07:02:29;7.97;;;4.20;;
20772;SDS011;10546;50.674;4.616;2023-05-10T07:04:54;5.57;;;4.10;;
20772;SDS011;10546;50.674;4.616;2023-05-10T07:07:20;6.47;;;3.80;;
20772;SDS011;10546;50.674;4.616;2023-05-10T07:09:46;9.23;;;4.40;;
20772;SDS011;10546;50.674;4.616;2023-05-10T07:12:11;6.47;;;4.20;;
20772;SDS011;10546;50.674;4.616;2023-05-10T07:14:37;8.20;;;4.35;;
20772;SDS011;10546;50.674;4.616;2023-05-10T07:17:03;7.47;;;4.67;;
20772;SDS011;10546;50.674;4.616;2023-05-10T07:19:28;6.40;;;4.50;;
20772;SDS011;10546;50.674;4.616;2023-05-10T07:21:54;6.43;;;4.10;;
20772;SDS011;10546;50.674;4.616;2023-05-10T07:24:20;7.97;;;4.17;;
20772;SDS011;10546;50.674;4.616;2023-05-10T07:26:46;6.20;;;4.05;;
20772;SDS011;10546;50.674;4.616;2023-05-10T07:29:11;7.50;;;4.73;;
20772;SDS011;10546;50.674;4.616;2023-05-10T07:31:37;8.90;;;4.38;;
20772;SDS011;10546;50.674;4.616;2023-05-10T07:34:03;9.97;;;5.00;;
20772;SDS011;10546;50.674;4.616;2023-05-10T07:36:28;8.03;;;4.97;;
20772;SDS011;10546;50.674;4.616;2023-05-10T07:38:54;10.63;;;5.45;;
20772;SDS011;10546;50.674;4.616;2023-05-10T07:41:20;7.03;;;4.40;;
20772;SDS011;10546;50.674;4.616;2023-05-10T07:43:47;12.82;;;4.40;;
20772;SDS011;10546;50.674;4.616;2023-05-10T07:46:13;8.23;;;3.92;;
20772;SDS011;10546;50.674;4.616;2023-05-10T07:48:38;6.75;;;3.50;;
20772;SDS011;10546;50.674;4.616;2023-05-10T07:51:04;6.57;;;4.10;;
20772;SDS011;10546;50.674;4.616;2023-05-10T07:53:34;6.32;;;3.40;;
20772;SDS011;10546;50.674;4.616;2023-05-10T07:56:19;4.13;;;2.90;;
20772;SDS011;10546;50.674;4.616;2023-05-10T07:58:50;4.75;;;2.97;;
20772;SDS011;10546;50.674;4.616;2023-05-10T08:01:16;5.20;;;3.25;;
20772;SDS011;10546;50.674;4.616;2023-05-10T08:03:42;4.72;;;2.78;;
20772;SDS011;10546;50.674;4.616;2023-05-10T08:06:08;5.70;;;3.25;;
20772;SDS011;10546;50.674;4.616;2023-05-10T08:08:34;6.40;;;2.85;;
20772;SDS011;10546;50.674;4.616;2023-05-10T08:10:59;3.83;;;2.75;;
20772;SDS011;10546;50.674;4.616;2023-05-10T08:13:25;9.48;;;2.72;;
20772;SDS011;10546;50.674;4.616;2023-05-10T08:15:51;4.45;;;2.70;;
20772;SDS011;10546;50.674;4.616;2023-05-10T08:18:18;8.32;;;2.80;;
20772;SDS011;10546;50.674;4.616;2023-05-10T08:20:44;5.70;;;2.97;;
20772;SDS011;10546;50.674;4.616;2023-05-10T08:23:10;5.93;;;2.70;;
20772;SDS011;10546;50.674;4.616;2023-05-10T08:25:37;5.55;;;2.50;;
20772;SDS011;10546;50.674;4.616;2023-05-10T08:28:03;6.95;;;2.80;;
20772;SDS011;10546;50.674;4.616;2023-05-10T08:30:29;6.53;;;4.18;;
20772;SDS011;10546;50.674;4.616;2023-05-10T08:32:55;4.23;;;3.07;;
20772;SDS011;10546;50.674;4.616;2023-05-10T08:35:20;3.58;;;2.28;;
20772;SDS011;10546;50.674;4.616;2023-05-10T08:37:46;4.20;;;2.88;;
20772;SDS011;10546;50.674;4.616;2023-05-10T08:40:12;2.95;;;2.20;;
20772;SDS011;10546;50.674;4.616;2023-05-10T08:42:39;6.70;;;2.45;;
20772;SDS011;10546;50.674;4.616;2023-05-10T08:45:08;3.83;;;2.38;;
20772;SDS011;10546;50.674;4.616;2023-05-10T08:47:35;5.25;;;2.40;;
20772;SDS011;10546;50.674;4.616;2023-05-10T08:50:02;4.18;;;2.20;;
20772;SDS011;10546;50.674;4.616;2023-05-10T08:52:29;2.75;;;2.05;;
20772;SDS011;10546;50.674;4.616;2023-05-10T08:54:56;2.85;;;2.30;;
20772;SDS011;10546;50.674;4.616;2023-05-10T08:57:21;3.33;;;2.38;;
20772;SDS011;10546;50.674;4.616;2023-05-10T08:59:47;6.53;;;2.63;;
20772;SDS011;10546;50.674;4.616;2023-05-10T09:02:13;3.95;;;2.15;;
20772;SDS011;10546;50.674;4.616;2023-05-10T09:04:39;3.58;;;2.67;;
20772;SDS011;10546;50.674;4.616;2023-05-10T09:07:05;4.47;;;3.05;;
20772;SDS011;10546;50.674;4.616;2023-05-10T09:09:32;4.07;;;2.67;;
20772;SDS011;10546;50.674;4.616;2023-05-10T09:11:59;4.10;;;2.45;;
20772;SDS011;10546;50.674;4.616;2023-05-10T09:14:25;3.03;;;2.40;;
20772;SDS011;10546;50.674;4.616;2023-05-10T09:16:51;2.90;;;2.25;;
20772;SDS011;10546;50.674;4.616;2023-05-10T09:19:20;4.07;;;2.45;;
20772;SDS011;10546;50.674;4.616;2023-05-10T09:21:45;3.72;;;2.67;;
20772;SDS011;10546;50.674;4.616;2023-05-10T09:24:11;4.65;;;2.80;;
20772;SDS011;10546;50.674;4.616;2023-05-10T09:26:45;4.00;;;2.20;;
20772;SDS011;10546;50.674;4.616;2023-05-10T09:29:13;4.80;;;2.40;;
20772;SDS011;10546;50.674;4.616;2023-05-10T09:34:15;6.97;;;2.45;;
20772;SDS011;10546;50.674;4.616;2023-05-10T09:36:51;4.75;;;2.90;;
20772;SDS011;10546;50.674;4.616;2023-05-10T09:39:18;3.10;;;1.90;;
20772;SDS011;10546;50.674;4.616;2023-05-10T09:41:44;2.60;;;2.03;;
20772;SDS011;10546;50.674;4.616;2023-05-10T09:44:09;2.50;;;1.98;;
20772;SDS011;10546;50.674;4.616;2023-05-10T09:46:35;4.32;;;2.10;;
20772;SDS011;10546;50.674;4.616;2023-05-10T09:49:01;2.88;;;2.13;;
20772;SDS011;10546;50.674;4.616;2023-05-10T09:51:27;2.92;;;1.95;;
20772;SDS011;10546;50.674;4.616;2023-05-10T09:54:15;3.70;;;2.13;;
20772;SDS011;10546;50.674;4.616;2023-05-10T09:56:41;3.13;;;2.30;;
20772;SDS011;10546;50.674;4.616;2023-05-10T09:59:09;3.65;;;2.47;;
20772;SDS011;10546;50.674;4.616;2023-05-10T10:01:36;2.08;;;1.80;;
20772;SDS011;10546;50.674;4.616;2023-05-10T10:04:06;4.18;;;2.67;;
20772;SDS011;10546;50.674;4.616;2023-05-10T10:06:35;2.50;;;2.28;;
20772;SDS011;10546;50.674;4.616;2023-05-10T10:09:02;3.67;;;2.58;;
20772;SDS011;10546;50.674;4.616;2023-05-10T10:11:28;4.13;;;2.80;;
20772;SDS011;10546;50.674;4.616;2023-05-10T10:13:54;5.45;;;3.63;;
20772;SDS011;10546;50.674;4.616;2023-05-10T10:16:20;5.77;;;4.00;;
20772;SDS011;10546;50.674;4.616;2023-05-10T10:18:45;9.38;;;5.28;;
20772;SDS011;10546;50.674;4.616;2023-05-10T10:21:13;8.60;;;5.25;;
20772;SDS011;10546;50.674;4.616;2023-05-10T10:23:40;8.90;;;5.40;;
20772;SDS011;10546;50.674;4.616;2023-05-10T10:26:08;9.07;;;5.85;;
20772;SDS011;10546;50.674;4.616;2023-05-10T10:28:39;9.68;;;6.03;;
20772;SDS011;10546;50.674;4.616;2023-05-10T10:31:39;10.32;;;6.13;;
20772;SDS011;10546;50.674;4.616;2023-05-10T10:34:10;8.82;;;5.75;;
20772;SDS011;10546;50.674;4.616;2023-05-10T10:36:56;11.65;;;6.30;;
20772;SDS011;10546;50.674;4.616;2023-05-10T10:39:23;8.30;;;5.40;;
20772;SDS011;10546;50.674;4.616;2023-05-10T10:41:55;9.82;;;5.32;;
20772;SDS011;10546;50.674;4.616;2023-05-10T10:47:04;9.77;;;6.32;;
20772;SDS011;10546;50.674;4.616;2023-05-10T10:49:42;9.80;;;5.55;;
20772;SDS011;10546;50.674;4.616;2023-05-10T10:52:23;8.05;;;5.47;;
20772;SDS011;10546;50.674;4.616;2023-05-10T10:55:03;8.45;;;5.15;;
20772;SDS011;10546;50.674;4.616;2023-05-10T10:57:32;6.63;;;4.75;;
20772;SDS011;10546;50.674;4.616;2023-05-10T11:02:59;10.27;;;5.03;;
20772;SDS011;10546;50.674;4.616;2023-05-10T11:07:57;12.85;;;6.10;;
20772;SDS011;10546;50.674;4.616;2023-05-10T11:10:24;8.50;;;5.50;;
20772;SDS011;10546;50.674;4.616;2023-05-10T11:13:04;7.80;;;5.43;;
20772;SDS011;10546;50.674;4.616;2023-05-10T11:15:38;8.15;;;5.05;;
20772;SDS011;10546;50.674;4.616;2023-05-10T11:20:45;8.57;;;5.22;;
20772;SDS011;10546;50.674;4.616;2023-05-10T11:23:16;7.47;;;5.10;;
20772;SDS011;10546;50.674;4.616;2023-05-10T11:25:43;8.38;;;4.80;;
20772;SDS011;10546;50.674;4.616;2023-05-10T11:28:09;7.88;;;5.03;;
20772;SDS011;10546;50.674;4.616;2023-05-10T11:30:38;8.68;;;4.82;;
20772;SDS011;10546;50.674;4.616;2023-05-10T11:33:05;8.48;;;4.47;;
20772;SDS011;10546;50.674;4.616;2023-05-10T11:35:36;9.43;;;4.50;;
20772;SDS011;10546;50.674;4.616;2023-05-10T11:38:09;11.13;;;5.75;;
20772;SDS011;10546;50.674;4.616;2023-05-10T11:40:36;11.25;;;5.40;;
20772;SDS011;10546;50.674;4.616;2023-05-10T11:43:03;6.80;;;5.00;;
20772;SDS011;10546;50.674;4.616;2023-05-10T11:45:31;10.18;;;5.70;;
20772;SDS011;10546;50.674;4.616;2023-05-10T11:47:58;7.95;;;5.30;;
20772;SDS011;10546;50.674;4.616;2023-05-10T11:50:24;9.27;;;5.32;;
20772;SDS011;10546;50.674;4.616;2023-05-10T11:52:53;9.65;;;4.97;;
20772;SDS011;10546;50.674;4.616;2023-05-10T11:55:20;9.80;;;5.35;;
20772;SDS011;10546;50.674;4.616;2023-05-10T11:57:46;11.50;;;6.40;;
20772;SDS011;10546;50.674;4.616;2023-05-10T12:00:15;8.90;;;5.10;;
20772;SDS011;10546;50.674;4.616;2023-05-10T12:02:40;8.98;;;5.60;;
20772;SDS011;10546;50.674;4.616;2023-05-10T12:05:07;10.68;;;5.70;;
20772;SDS011;10546;50.674;4.616;2023-05-10T12:07:33;7.95;;;5.18;;
20772;SDS011;10546;50.674;4.616;2023-05-10T12:10:11;8.50;;;4.63;;
20772;SDS011;10546;50.674;4.616;2023-05-10T12:12:45;10.20;;;4.95;;
20772;SDS011;10546;50.674;4.616;2023-05-10T12:15:20;7.32;;;5.15;;
20772;SDS011;10546;50.674;4.616;2023-05-10T12:17:47;8.90;;;5.55;;
20772;SDS011;10546;50.674;4.616;2023-05-10T12:20:14;7.95;;;5.10;;
20772;SDS011;10546;50.674;4.616;2023-05-10T12:22:40;8.00;;;4.60;;
20772;SDS011;10546;50.674;4.616;2023-05-10T12:25:10;7.00;;;4.30;;
20772;SDS011;10546;50.674;4.616;2023-05-10T12:27:36;6.93;;;4.13;;
20772;SDS011;10546;50.674;4.616;2023-05-10T12:30:02;9.13;;;3.83;;
20772;SDS011;10546;50.674;4.616;2023-05-10T12:32:43;5.00;;;3.72;;
20772;SDS011;10546;50.674;4.616;2023-05-10T12:35:09;7.43;;;4.03;;
20772;SDS011;10546;50.674;4.616;2023-05-10T12:37:35;5.85;;;3.83;;
20772;SDS011;10546;50.674;4.616;2023-05-10T12:40:07;7.75;;;4.07;;
20772;SDS011;10546;50.674;4.616;2023-05-10T12:42:35;7.03;;;3.83;;
20772;SDS011;10546;50.674;4.616;2023-05-10T12:45:21;9.60;;;4.38;;
20772;SDS011;10546;50.674;4.616;2023-05-10T12:47:47;7.38;;;4.63;;
20772;SDS011;10546;50.674;4.616;2023-05-10T12:50:13;9.65;;;5.05;;
20772;SDS011;10546;50.674;4.616;2023-05-10T12:52:39;8.43;;;4.78;;
20772;SDS011;10546;50.674;4.616;2023-05-10T12:55:05;9.98;;;5.82;;
20772;SDS011;10546;50.674;4.616;2023-05-10T12:57:32;10.13;;;5.30;;
20772;SDS011;10546;50.674;4.616;2023-05-10T12:59:57;8.98;;;5.57;;
20772;SDS011;10546;50.674;4.616;2023-05-10T13:02:23;8.75;;;5.10;;
20772;SDS011;10546;50.674;4.616;2023-05-10T13:04:49;9.80;;;5.32;;
20772;SDS011;10546;50.674;4.616;2023-05-10T13:07:15;8.23;;;5.10;;
20772;SDS011;10546;50.674;4.616;2023-05-10T13:09:40;10.38;;;5.38;;
20772;SDS011;10546;50.674;4.616;2023-05-10T13:12:06;8.77;;;5.70;;
20772;SDS011;10546;50.674;4.616;2023-05-10T13:14:32;10.40;;;5.43;;
20772;SDS011;10546;50.674;4.616;2023-05-10T13:16:58;9.05;;;5.60;;
20772;SDS011;10546;50.674;4.616;2023-05-10T13:19:23;9.35;;;5.70;;
20772;SDS011;10546;50.674;4.616;2023-05-10T13:21:49;10.85;;;5.32;;
20772;SDS011;10546;50.674;4.616;2023-05-10T13:24:15;10.82;;;6.03;;
20772;SDS011;10546;50.674;4.616;2023-05-10T13:26:42;10.77;;;5.70;;
20772;SDS011;10546;50.674;4.616;2023-05-10T13:29:08;9.27;;;5.47;;
20772;SDS011;10546;50.674;4.616;2023-05-10T13:31:34;9.60;;;5.65;;
20772;SDS011;10546;50.674;4.616;2023-05-10T13:34:15;9.77;;;5.22;;
20772;SDS011;10546;50.674;4.616;2023-05-10T13:36:41;8.38;;;5.05;;
20772;SDS011;10546;50.674;4.616;2023-05-10T13:39:07;9.82;;;5.25;;
20772;SDS011;10546;50.674;4.616;2023-05-10T13:41:33;9.98;;;5.22;;
20772;SDS011;10546;50.674;4.616;2023-05-10T13:43:59;10.18;;;5.60;;
20772;SDS011;10546;50.674;4.616;2023-05-10T13:46:31;11.93;;;6.50;;
20772;SDS011;10546;50.674;4.616;2023-05-10T13:49:05;9.43;;;5.60;;
20772;SDS011;10546;50.674;4.616;2023-05-10T13:51:33;9.40;;;5.22;;
20772;SDS011;10546;50.674;4.616;2023-05-10T13:54:15;7.47;;;4.68;;
20772;SDS011;10546;50.674;4.616;2023-05-10T13:56:51;7.80;;;4.50;;
20772;SDS011;10546;50.674;4.616;2023-05-10T13:59:19;9.63;;;4.75;;
20772;SDS011;10546;50.674;4.616;2023-05-10T14:01:48;7.63;;;4.68;;
20772;SDS011;10546;50.674;4.616;2023-05-10T14:04:13;6.78;;;4.05;;
20772;SDS011;10546;50.674;4.616;2023-05-10T14:06:39;7.80;;;4.45;;
20772;SDS011;10546;50.674;4.616;2023-05-10T14:09:05;12.88;;;4.18;;
20772;SDS011;10546;50.674;4.616;2023-05-10T14:11:30;6.50;;;3.67;;
20772;SDS011;10546;50.674;4.616;2023-05-10T14:13:56;4.60;;;3.20;;
20772;SDS011;10546;50.674;4.616;2023-05-10T14:16:22;3.67;;;2.17;;
20772;SDS011;10546;50.674;4.616;2023-05-10T14:18:47;4.22;;;2.42;;
20772;SDS011;10546;50.674;4.616;2023-05-10T14:21:13;4.40;;;2.60;;
20772;SDS011;10546;50.674;4.616;2023-05-10T14:23:39;3.88;;;2.40;;
20772;SDS011;10546;50.674;4.616;2023-05-10T14:26:04;3.13;;;2.17;;
20772;SDS011;10546;50.674;4.616;2023-05-10T14:28:31;3.40;;;2.25;;
20772;SDS011;10546;50.674;4.616;2023-05-10T14:30:57;2.55;;;1.85;;
20772;SDS011;10546;50.674;4.616;2023-05-10T14:33:24;4.03;;;2.20;;
20772;SDS011;10546;50.674;4.616;2023-05-10T14:35:50;3.83;;;2.33;;
20772;SDS011;10546;50.674;4.616;2023-05-10T14:38:16;3.83;;;2.30;;
20772;SDS011;10546;50.674;4.616;2023-05-10T14:40:41;2.65;;;1.98;;
20772;SDS011;10546;50.674;4.616;2023-05-10T14:43:08;3.22;;;1.95;;
20772;SDS011;10546;50.674;4.616;2023-05-10T14:45:34;3.00;;;2.38;;
20772;SDS011;10546;50.674;4.616;2023-05-10T14:47:59;3.83;;;2.50;;
20772;SDS011;10546;50.674;4.616;2023-05-10T14:50:25;7.65;;;3.78;;
20772;SDS011;10546;50.674;4.616;2023-05-10T14:52:51;5.05;;;3.20;;
20772;SDS011;10546;50.674;4.616;2023-05-10T14:55:16;3.78;;;2.92;;
20772;SDS011;10546;50.674;4.616;2023-05-10T14:57:42;4.60;;;3.28;;
20772;SDS011;10546;50.674;4.616;2023-05-10T15:00:09;5.28;;;3.80;;
20772;SDS011;10546;50.674;4.616;2023-05-10T15:02:35;6.10;;;3.47;;
20772;SDS011;10546;50.674;4.616;2023-05-10T15:05:01;10.45;;;3.70;;
20772;SDS011;10546;50.674;4.616;2023-05-10T15:07:27;5.32;;;3.20;;
20772;SDS011;10546;50.674;4.616;2023-05-10T15:09:52;4.93;;;3.13;;
20772;SDS011;10546;50.674;4.616;2023-05-10T15:12:19;6.30;;;3.50;;
20772;SDS011;10546;50.674;4.616;2023-05-10T15:14:45;5.03;;;3.58;;
20772;SDS011;10546;50.674;4.616;2023-05-10T15:17:11;5.10;;;3.35;;
20772;SDS011;10546;50.674;4.616;2023-05-10T15:19:37;6.50;;;3.70;;
20772;SDS011;10546;50.674;4.616;2023-05-10T15:22:03;8.52;;;4.32;;
20772;SDS011;10546;50.674;4.616;2023-05-10T15:24:30;6.45;;;4.20;;
20772;SDS011;10546;50.674;4.616;2023-05-10T15:26:55;9.63;;;4.68;;
20772;SDS011;10546;50.674;4.616;2023-05-10T15:29:21;7.13;;;4.53;;
20772;SDS011;10546;50.674;4.616;2023-05-10T15:31:47;10.45;;;5.57;;
20772;SDS011;10546;50.674;4.616;2023-05-10T15:34:14;8.90;;;5.60;;
20772;SDS011;10546;50.674;4.616;2023-05-10T15:36:40;10.27;;;5.70;;
20772;SDS011;10546;50.674;4.616;2023-05-10T15:39:05;9.23;;;5.72;;
20772;SDS011;10546;50.674;4.616;2023-05-10T15:41:31;11.95;;;6.72;;
20772;SDS011;10546;50.674;4.616;2023-05-10T15:43:57;14.15;;;8.05;;
20772;SDS011;10546;50.674;4.616;2023-05-10T15:46:26;17.95;;;9.35;;
20772;SDS011;10546;50.674;4.616;2023-05-10T15:48:53;13.93;;;8.27;;
20772;SDS011;10546;50.674;4.616;2023-05-10T15:51:18;14.60;;;7.22;;
20772;SDS011;10546;50.674;4.616;2023-05-10T15:53:44;15.00;;;8.38;;
20772;SDS011;10546;50.674;4.616;2023-05-10T15:56:10;17.30;;;8.48;;
20772;SDS011;10546;50.674;4.616;2023-05-10T15:58:37;17.40;;;9.48;;
20772;SDS011;10546;50.674;4.616;2023-05-10T16:01:03;16.17;;;8.50;;
20772;SDS011;10546;50.674;4.616;2023-05-10T16:03:35;16.48;;;8.80;;
20772;SDS011;10546;50.674;4.616;2023-05-10T16:06:00;18.90;;;9.13;;
20772;SDS011;10546;50.674;4.616;2023-05-10T16:08:26;13.15;;;7.80;;
20772;SDS011;10546;50.674;4.616;2023-05-10T16:10:54;15.48;;;8.60;;
20772;SDS011;10546;50.674;4.616;2023-05-10T16:13:20;15.10;;;8.18;;
20772;SDS011;10546;50.674;4.616;2023-05-10T16:15:46;13.90;;;7.70;;
20772;SDS011;10546;50.674;4.616;2023-05-10T16:18:12;15.00;;;8.00;;
20772;SDS011;10546;50.674;4.616;2023-05-10T16:20:38;21.58;;;8.20;;
20772;SDS011;10546;50.674;4.616;2023-05-10T16:23:04;13.63;;;7.53;;
20772;SDS011;10546;50.674;4.616;2023-05-10T16:25:34;14.43;;;8.25;;
20772;SDS011;10546;50.674;4.616;2023-05-10T16:28:00;16.75;;;7.72;;
20772;SDS011;10546;50.674;4.616;2023-05-10T16:30:25;12.07;;;7.15;;
20772;SDS011;10546;50.674;4.616;2023-05-10T16:32:54;14.57;;;7.70;;
20772;SDS011;10546;50.674;4.616;2023-05-10T16:35:23;16.25;;;7.57;;
20772;SDS011;10546;50.674;4.616;2023-05-10T16:37:53;13.02;;;6.75;;
20772;SDS011;10546;50.674;4.616;2023-05-10T16:40:20;12.32;;;7.57;;
20772;SDS011;10546;50.674;4.616;2023-05-10T16:42:45;17.15;;;9.82;;
20772;SDS011;10546;50.674;4.616;2023-05-10T16:45:11;13.60;;;7.43;;
20772;SDS011;10546;50.674;4.616;2023-05-10T16:47:37;13.13;;;6.18;;
20772;SDS011;10546;50.674;4.616;2023-05-10T16:50:04;11.23;;;7.10;;
20772;SDS011;10546;50.674;4.616;2023-05-10T16:52:31;15.85;;;8.10;;
20772;SDS011;10546;50.674;4.616;2023-05-10T16:54:58;14.95;;;8.20;;
20772;SDS011;10546;50.674;4.616;2023-05-10T16:57:24;9.98;;;7.05;;
20772;SDS011;10546;50.674;4.616;2023-05-10T16:59:50;15.18;;;7.93;;
20772;SDS011;10546;50.674;4.616;2023-05-10T17:02:19;14.63;;;7.47;;
20772;SDS011;10546;50.674;4.616;2023-05-10T17:04:45;14.40;;;7.55;;
20772;SDS011;10546;50.674;4.616;2023-05-10T17:07:11;14.05;;;8.68;;
20772;SDS011;10546;50.674;4.616;2023-05-10T17:09:37;14.95;;;8.13;;
20772;SDS011;10546;50.674;4.616;2023-05-10T17:12:03;14.48;;;8.10;;
20772;SDS011;10546;50.674;4.616;2023-05-10T17:14:29;14.35;;;8.48;;
20772;SDS011;10546;50.674;4.616;2023-05-10T17:16:54;15.30;;;8.57;;
20772;SDS011;10546;50.674;4.616;2023-05-10T17:19:20;15.20;;;9.43;;
20772;SDS011;10546;50.674;4.616;2023-05-10T17:21:46;18.33;;;8.95;;
20772;SDS011;10546;50.674;4.616;2023-05-10T17:24:12;15.40;;;9.05;;
20772;SDS011;10546;50.674;4.616;2023-05-10T17:26:38;17.45;;;8.45;;
20772;SDS011;10546;50.674;4.616;2023-05-10T17:29:03;13.15;;;8.85;;
20772;SDS011;10546;50.674;4.616;2023-05-10T17:31:29;13.57;;;8.23;;
20772;SDS011;10546;50.674;4.616;2023-05-10T17:33:56;18.20;;;8.43;;
20772;SDS011;10546;50.674;4.616;2023-05-10T17:36:22;14.35;;;8.68;;
20772;SDS011;10546;50.674;4.616;2023-05-10T17:38:47;17.73;;;9.18;;
20772;SDS011;10546;50.674;4.616;2023-05-10T17:41:13;20.02;;;8.23;;
20772;SDS011;10546;50.674;4.616;2023-05-10T17:43:39;15.55;;;7.85;;
20772;SDS011;10546;50.674;4.616;2023-05-10T17:46:04;14.65;;;8.05;;
20772;SDS011;10546;50.674;4.616;2023-05-10T17:48:30;12.10;;;8.18;;
20772;SDS011;10546;50.674;4.616;2023-05-10T17:50:56;16.17;;;8.07;;
20772;SDS011;10546;50.674;4.616;2023-05-10T17:53:21;13.75;;;8.18;;
20772;SDS011;10546;50.674;4.616;2023-05-10T17:55:47;16.48;;;8.68;;
20772;SDS011;10546;50.674;4.616;2023-05-10T17:58:15;14.55;;;8.27;;
20772;SDS011;10546;50.674;4.616;2023-05-10T18:00:40;13.57;;;8.15;;
20772;SDS011;10546;50.674;4.616;2023-05-10T18:03:06;18.90;;;8.48;;
20772;SDS011;10546;50.674;4.616;2023-05-10T18:05:35;13.13;;;8.90;;
20772;SDS011;10546;50.674;4.616;2023-05-10T18:08:03;15.50;;;8.68;;
20772;SDS011;10546;50.674;4.616;2023-05-10T18:10:29;21.13;;;10.65;;
20772;SDS011;10546;50.674;4.616;2023-05-10T18:12:55;18.90;;;10.93;;
20772;SDS011;10546;50.674;4.616;2023-05-10T18:15:22;17.15;;;9.68;;
20772;SDS011;10546;50.674;4.616;2023-05-10T18:17:48;19.20;;;10.25;;
20772;SDS011;10546;50.674;4.616;2023-05-10T18:20:14;17.40;;;10.38;;
20772;SDS011;10546;50.674;4.616;2023-05-10T18:22:39;20.20;;;10.10;;
20772;SDS011;10546;50.674;4.616;2023-05-10T18:25:05;18.52;;;10.00;;
20772;SDS011;10546;50.674;4.616;2023-05-10T18:27:31;17.55;;;10.88;;
20772;SDS011;10546;50.674;4.616;2023-05-10T18:29:57;19.85;;;11.35;;
20772;SDS011;10546;50.674;4.616;2023-05-10T18:32:23;22.05;;;13.40;;
20772;SDS011;10546;50.674;4.616;2023-05-10T18:34:48;19.80;;;11.88;;
20772;SDS011;10546;50.674;4.616;2023-05-10T18:37:14;19.88;;;11.88;;
20772;SDS011;10546;50.674;4.616;2023-05-10T18:39:40;23.38;;;11.20;;
20772;SDS011;10546;50.674;4.616;2023-05-10T18:42:06;20.20;;;11.15;;
20772;SDS011;10546;50.674;4.616;2023-05-10T18:44:32;20.52;;;11.23;;
20772;SDS011;10546;50.674;4.616;2023-05-10T18:46:58;21.23;;;11.68;;
20772;SDS011;10546;50.674;4.616;2023-05-10T18:49:24;21.95;;;11.70;;
20772;SDS011;10546;50.674;4.616;2023-05-10T18:51:51;24.42;;;11.68;;
20772;SDS011;10546;50.674;4.616;2023-05-10T18:54:17;17.60;;;11.10;;
20772;SDS011;10546;50.674;4.616;2023-05-10T18:56:43;18.88;;;11.20;;
20772;SDS011;10546;50.674;4.616;2023-05-10T18:59:11;24.02;;;11.38;;
20772;SDS011;10546;50.674;4.616;2023-05-10T19:01:37;19.55;;;11.75;;
20772;SDS011;10546;50.674;4.616;2023-05-10T19:04:06;21.30;;;12.05;;
20772;SDS011;10546;50.674;4.616;2023-05-10T19:06:32;22.27;;;12.38;;
20772;SDS011;10546;50.674;4.616;2023-05-10T19:08:58;20.55;;;14.02;;
20772;SDS011;10546;50.674;4.616;2023-05-10T19:11:24;25.90;;;15.35;;
20772;SDS011;10546;50.674;4.616;2023-05-10T19:13:50;24.58;;;14.07;;
20772;SDS011;10546;50.674;4.616;2023-05-10T19:16:16;24.08;;;15.50;;
20772;SDS011;10546;50.674;4.616;2023-05-10T19:18:45;26.05;;;14.77;;
20772;SDS011;10546;50.674;4.616;2023-05-10T19:21:11;23.20;;;14.15;;
20772;SDS011;10546;50.674;4.616;2023-05-10T19:23:39;23.40;;;15.02;;
20772;SDS011;10546;50.674;4.616;2023-05-10T19:26:06;23.80;;;14.40;;
20772;SDS011;10546;50.674;4.616;2023-05-10T19:28:33;29.55;;;16.10;;
20772;SDS011;10546;50.674;4.616;2023-05-10T19:31:00;23.48;;;15.35;;
20772;SDS011;10546;50.674;4.616;2023-05-10T19:33:29;28.38;;;15.90;;
20772;SDS011;10546;50.674;4.616;2023-05-10T19:35:55;22.73;;;14.57;;
20772;SDS011;10546;50.674;4.616;2023-05-10T19:38:21;28.60;;;15.45;;
20772;SDS011;10546;50.674;4.616;2023-05-10T19:40:48;25.90;;;14.95;;
20772;SDS011;10546;50.674;4.616;2023-05-10T19:43:14;23.20;;;14.85;;
20772;SDS011;10546;50.674;4.616;2023-05-10T19:45:41;30.05;;;15.35;;
20772;SDS011;10546;50.674;4.616;2023-05-10T19:48:06;25.83;;;15.65;;
20772;SDS011;10546;50.674;4.616;2023-05-10T19:50:32;31.13;;;15.30;;
20772;SDS011;10546;50.674;4.616;2023-05-10T19:52:58;25.27;;;14.15;;
20772;SDS011;10546;50.674;4.616;2023-05-10T19:55:28;23.92;;;14.05;;
20772;SDS011;10546;50.674;4.616;2023-05-10T19:57:59;24.88;;;14.52;;
20772;SDS011;10546;50.674;4.616;2023-05-10T20:00:25;31.92;;;15.15;;
20772;SDS011;10546;50.674;4.616;2023-05-10T20:02:54;30.92;;;15.80;;
20772;SDS011;10546;50.674;4.616;2023-05-10T20:05:20;28.75;;;17.75;;
20772;SDS011;10546;50.674;4.616;2023-05-10T20:07:46;29.45;;;16.02;;
20772;SDS011;10546;50.674;4.616;2023-05-10T20:10:12;31.05;;;16.05;;
20772;SDS011;10546;50.674;4.616;2023-05-10T20:12:37;26.25;;;16.08;;
20772;SDS011;10546;50.674;4.616;2023-05-10T20:15:05;27.55;;;15.75;;
20772;SDS011;10546;50.674;4.616;2023-05-10T20:17:31;25.60;;;15.90;;
20772;SDS011;10546;50.674;4.616;2023-05-10T20:19:57;28.80;;;16.10;;
20772;SDS011;10546;50.674;4.616;2023-05-10T20:22:23;26.90;;;16.25;;
20772;SDS011;10546;50.674;4.616;2023-05-10T20:24:49;23.20;;;15.02;;
20772;SDS011;10546;50.674;4.616;2023-05-10T20:27:15;23.25;;;14.85;;
20772;SDS011;10546;50.674;4.616;2023-05-10T20:29:41;25.80;;;15.95;;
20772;SDS011;10546;50.674;4.616;2023-05-10T20:32:08;22.67;;;15.05;;
20772;SDS011;10546;50.674;4.616;2023-05-10T20:34:33;26.35;;;15.23;;
20772;SDS011;10546;50.674;4.616;2023-05-10T20:37:00;30.70;;;15.32;;
20772;SDS011;10546;50.674;4.616;2023-05-10T20:39:26;24.58;;;14.65;;
20772;SDS011;10546;50.674;4.616;2023-05-10T20:41:53;31.45;;;16.42;;
20772;SDS011;10546;50.674;4.616;2023-05-10T20:44:18;30.80;;;16.70;;
20772;SDS011;10546;50.674;4.616;2023-05-10T20:46:44;27.75;;;16.92;;
20772;SDS011;10546;50.674;4.616;2023-05-10T20:49:10;31.45;;;16.52;;
20772;SDS011;10546;50.674;4.616;2023-05-10T20:51:42;30.45;;;16.20;;
20772;SDS011;10546;50.674;4.616;2023-05-10T20:54:08;26.23;;;15.15;;
20772;SDS011;10546;50.674;4.616;2023-05-10T20:56:34;29.20;;;15.27;;